Time;durP1;ratioP1;P1;durP2;ratioP2;P2;SDS_P1;SDS_P2;PMS_P1;PMS_P2;Temp;Humidity;BMP_temperature;BMP_pressure;BME280_temperature;BME280_humidity;BME280_pressure;Samples;Min_cycle;Max_cycle;Signal;HPM_P1;HPM_P2
2023/09/13 00:01:43;;;;;;;19.48;11.70;;;;;;;;;;4993764;28;20035;-72
2023/09/13 00:04:09;;;;;;;19.80;12.45;;;;;;;;;;4991069;28;20046;-72
2023/09/13 00:06:35;;;;;;;21.98;12.90;;;;;;;;;;4993105;28;20038;-73
2023/09/13 00:09:01;;;;;;;20.63;12.90;;;;;;;;;;4993562;28;20038;-72
2023/09/13 00:11:27;;;;;;;19.38;12.38;;;;;;;;;;4993090;28;20045;-73
2023/09/13 00:13:53;;;;;;;20.42;12.10;;;;;;;;;;4993733;28;20396;-72
2023/09/13 00:16:19;;;;;;;21.83;12.00;;;;;;;;;;4992968;28;20038;-72
2023/09/13 00:18:45;;;;;;;21.02;11.50;;;;;;;;;;4992129;28;20064;-73
2023/09/13 00:21:11;;;;;;;21.85;11.20;;;;;;;;;;4992636;28;20042;-73
2023/09/13 00:23:37;;;;;;;19.00;10.63;;;;;;;;;;4993293;28;20046;-72
2023/09/13 00:26:03;;;;;;;17.85;10.43;;;;;;;;;;4992771;28;20041;-73
2023/09/13 00:28:29;;;;;;;20.48;10.15;;;;;;;;;;4993177;28;20039;-73
2023/09/13 00:30:56;;;;;;;19.95;9.63;;;;;;;;;;4993019;28;20053;-73
2023/09/13 00:33:22;;;;;;;17.05;9.48;;;;;;;;;;4991895;28;20104;-72
2023/09/13 00:35:48;;;;;;;16.67;9.38;;;;;;;;;;4992489;28;20122;-72
2023/09/13 00:38:14;;;;;;;26.58;10.05;;;;;;;;;;4993066;28;20066;-72
2023/09/13 00:40:40;;;;;;;17.35;9.48;;;;;;;;;;4992721;28;20420;-72
2023/09/13 00:43:06;;;;;;;22.52;9.43;;;;;;;;;;4993102;28;20423;-72
2023/09/13 00:45:33;;;;;;;21.27;9.20;;;;;;;;;;4984569;28;20045;-73
2023/09/13 00:47:59;;;;;;;19.15;9.25;;;;;;;;;;4989898;28;20046;-72
2023/09/13 00:50:26;;;;;;;16.85;8.40;;;;;;;;;;4992896;28;20057;-72
2023/09/13 00:52:52;;;;;;;17.88;8.70;;;;;;;;;;4992042;28;20484;-72
2023/09/13 00:55:19;;;;;;;22.75;9.68;;;;;;;;;;4992479;28;20098;-72
2023/09/13 00:57:46;;;;;;;16.27;8.38;;;;;;;;;;4992788;28;20045;-72
2023/09/13 01:00:13;;;;;;;15.25;8.50;;;;;;;;;;4991448;28;20049;-72
2023/09/13 01:02:40;;;;;;;14.88;9.00;;;;;;;;;;4992525;28;20042;-72
2023/09/13 01:05:08;;;;;;;19.25;8.68;;;;;;;;;;4992351;28;20049;-72
2023/09/13 01:07:34;;;;;;;16.67;8.02;;;;;;;;;;4992308;28;20039;-73
2023/09/13 01:10:00;;;;;;;14.82;7.95;;;;;;;;;;4992255;28;20114;-72
2023/09/13 01:12:26;;;;;;;14.07;8.65;;;;;;;;;;4992608;28;20675;-72
2023/09/13 01:14:52;;;;;;;15.82;7.85;;;;;;;;;;4994371;28;20052;-72
2023/09/13 01:17:20;;;;;;;14.43;7.55;;;;;;;;;;4996650;28;20034;-72
2023/09/13 01:19:52;;;;;;;14.85;6.88;;;;;;;;;;4996398;28;20078;-73
2023/09/13 01:22:26;;;;;;;15.90;6.82;;;;;;;;;;4988953;28;20049;-72
2023/09/13 01:25:00;;;;;;;15.45;6.75;;;;;;;;;;4995113;28;20050;-72
2023/09/13 01:27:53;;;;;;;12.25;6.57;;;;;;;;;;4996643;28;20046;-72
2023/09/13 01:30:20;;;;;;;11.98;5.63;;;;;;;;;;4995007;28;20046;-72
2023/09/13 01:32:49;;;;;;;15.23;5.75;;;;;;;;;;4996110;28;20192;-72
2023/09/13 01:35:15;;;;;;;10.38;4.80;;;;;;;;;;4996419;28;20045;-72
2023/09/13 01:37:41;;;;;;;12.35;5.20;;;;;;;;;;4995816;28;20038;-72
2023/09/13 01:40:08;;;;;;;11.73;4.90;;;;;;;;;;4995193;28;20065;-72
2023/09/13 01:42:36;;;;;;;15.20;5.70;;;;;;;;;;4996069;28;20050;-72
2023/09/13 01:45:03;;;;;;;17.35;5.15;;;;;;;;;;4995379;28;20047;-72
2023/09/13 01:47:30;;;;;;;14.52;5.57;;;;;;;;;;4994543;28;20039;-72
2023/09/13 01:49:57;;;;;;;11.27;5.13;;;;;;;;;;4995934;28;20622;-72
2023/09/13 01:52:23;;;;;;;12.13;5.32;;;;;;;;;;4996310;28;20038;-72
2023/09/13 01:54:49;;;;;;;11.55;5.28;;;;;;;;;;4995763;28;20505;-72
2023/09/13 01:57:14;;;;;;;11.15;4.40;;;;;;;;;;4995482;28;20034;-72
2023/09/13 01:59:40;;;;;;;9.73;4.32;;;;;;;;;;4995955;28;20133;-72
2023/09/13 02:02:06;;;;;;;14.70;4.05;;;;;;;;;;4993714;28;20488;-72
2023/09/13 02:04:33;;;;;;;7.50;4.45;;;;;;;;;;4995511;28;20053;-73
2023/09/13 02:07:02;;;;;;;9.15;3.90;;;;;;;;;;4992943;28;20042;-72
2023/09/13 02:09:28;;;;;;;9.45;3.72;;;;;;;;;;4995522;28;20412;-72
2023/09/13 02:11:54;;;;;;;10.40;3.60;;;;;;;;;;4993946;28;20045;-72
2023/09/13 02:14:20;;;;;;;7.40;3.00;;;;;;;;;;4988323;28;20041;-72
2023/09/13 02:16:46;;;;;;;5.82;2.85;;;;;;;;;;4995234;28;20511;-72
2023/09/13 02:19:12;;;;;;;8.63;3.30;;;;;;;;;;4993746;28;20065;-72
2023/09/13 02:21:38;;;;;;;7.63;2.97;;;;;;;;;;4995352;28;20125;-72
2023/09/13 02:24:04;;;;;;;8.57;2.92;;;;;;;;;;4995579;28;20118;-72
2023/09/13 02:26:31;;;;;;;10.73;2.85;;;;;;;;;;4993826;28;20497;-73
2023/09/13 02:28:57;;;;;;;7.65;2.40;;;;;;;;;;4995266;28;20526;-72
2023/09/13 02:31:27;;;;;;;9.13;3.17;;;;;;;;;;4995551;28;20038;-72
2023/09/13 02:33:53;;;;;;;10.55;3.20;;;;;;;;;;4995241;28;20049;-72
2023/09/13 02:36:19;;;;;;;9.43;3.08;;;;;;;;;;4990054;28;20077;-72
2023/09/13 02:38:45;;;;;;;8.30;2.78;;;;;;;;;;4989853;28;20050;-72
2023/09/13 02:41:11;;;;;;;7.88;2.70;;;;;;;;;;4995179;28;20053;-72
2023/09/13 02:43:39;;;;;;;10.23;2.88;;;;;;;;;;4994637;28;20046;-72
2023/09/13 02:46:05;;;;;;;6.90;2.90;;;;;;;;;;4994984;28;20096;-72
2023/09/13 02:48:31;;;;;;;7.95;3.17;;;;;;;;;;4994800;28;20042;-72
2023/09/13 02:50:57;;;;;;;8.65;3.50;;;;;;;;;;4994661;28;20038;-72
2023/09/13 02:53:23;;;;;;;8.50;3.20;;;;;;;;;;4993022;28;20464;-73
2023/09/13 02:55:49;;;;;;;8.27;3.30;;;;;;;;;;4994711;28;20041;-73
2023/09/13 02:58:15;;;;;;;9.55;3.13;;;;;;;;;;4994333;28;20038;-72
2023/09/13 03:00:44;;;;;;;9.68;3.50;;;;;;;;;;4993188;28;20043;-73
2023/09/13 03:03:10;;;;;;;7.65;3.60;;;;;;;;;;4994590;28;20512;-73
2023/09/13 03:05:36;;;;;;;8.52;3.08;;;;;;;;;;4994579;28;20042;-72
2023/09/13 03:08:02;;;;;;;10.13;3.70;;;;;;;;;;4994657;28;20374;-72
2023/09/13 03:10:29;;;;;;;9.25;3.55;;;;;;;;;;4993794;28;20048;-73
2023/09/13 03:12:55;;;;;;;9.52;3.33;;;;;;;;;;4994312;28;20034;-72
2023/09/13 03:15:20;;;;;;;11.40;4.22;;;;;;;;;;4993412;28;20123;-72
2023/09/13 03:17:46;;;;;;;11.73;3.47;;;;;;;;;;4994149;28;20604;-73
2023/09/13 03:20:13;;;;;;;8.18;3.35;;;;;;;;;;4994498;28;20137;-73
2023/09/13 03:22:39;;;;;;;8.90;3.22;;;;;;;;;;4994073;28;20049;-73
2023/09/13 03:25:05;;;;;;;9.18;3.35;;;;;;;;;;4993891;28;20042;-73
2023/09/13 03:27:34;;;;;;;9.00;3.10;;;;;;;;;;4993844;28;20077;-73
2023/09/13 03:29:59;;;;;;;9.40;3.20;;;;;;;;;;4994501;28;20034;-72
2023/09/13 03:32:25;;;;;;;7.22;3.15;;;;;;;;;;4992973;28;20038;-73
2023/09/13 03:34:52;;;;;;;9.65;4.07;;;;;;;;;;4994353;28;20046;-72
2023/09/13 03:37:18;;;;;;;9.88;3.28;;;;;;;;;;4993658;28;20406;-72
2023/09/13 03:39:44;;;;;;;8.43;3.40;;;;;;;;;;4976583;28;20488;-72
2023/09/13 03:42:10;;;;;;;9.02;3.42;;;;;;;;;;4993716;28;20042;-72
2023/09/13 03:44:36;;;;;;;8.00;3.60;;;;;;;;;;4994015;28;20509;-73
2023/09/13 03:47:02;;;;;;;9.07;3.13;;;;;;;;;;4993394;28;20042;-72
2023/09/13 03:49:28;;;;;;;8.90;3.28;;;;;;;;;;4994061;28;20034;-72
2023/09/13 03:51:54;;;;;;;7.00;3.08;;;;;;;;;;4993467;28;20389;-72
2023/09/13 03:54:20;;;;;;;8.23;3.30;;;;;;;;;;4990014;28;20035;-72
2023/09/13 03:56:46;;;;;;;7.60;3.53;;;;;;;;;;4989309;28;20042;-72
2023/09/13 03:59:12;;;;;;;11.40;4.00;;;;;;;;;;4975634;28;20054;-72
2023/09/13 04:01:38;;;;;;;11.60;3.50;;;;;;;;;;4992165;28;20044;-72
2023/09/13 04:04:04;;;;;;;11.30;3.78;;;;;;;;;;4987874;28;20361;-72
2023/09/13 04:06:30;;;;;;;11.20;3.17;;;;;;;;;;4992026;28;20077;-72
2023/09/13 04:08:56;;;;;;;11.75;3.50;;;;;;;;;;4993060;28;20038;-72
2023/09/13 04:11:22;;;;;;;8.40;3.67;;;;;;;;;;4993296;28;20046;-72
2023/09/13 04:13:48;;;;;;;10.85;3.60;;;;;;;;;;4993419;28;20046;-72
2023/09/13 04:16:15;;;;;;;12.20;3.35;;;;;;;;;;4992597;28;20176;-72
2023/09/13 04:18:41;;;;;;;6.70;3.22;;;;;;;;;;4993489;28;20053;-72
2023/09/13 04:21:07;;;;;;;6.93;3.05;;;;;;;;;;4993169;28;20492;-72
2023/09/13 04:23:33;;;;;;;9.27;3.40;;;;;;;;;;4991954;28;20042;-72
2023/09/13 04:25:59;;;;;;;6.72;3.22;;;;;;;;;;4992522;28;20035;-72
2023/09/13 04:28:25;;;;;;;9.00;3.33;;;;;;;;;;4989049;28;20412;-72
2023/09/13 04:30:52;;;;;;;12.13;3.08;;;;;;;;;;4989608;28;20038;-72
2023/09/13 04:33:20;;;;;;;10.38;3.35;;;;;;;;;;4992400;28;20030;-72
2023/09/13 04:35:46;;;;;;;8.60;3.30;;;;;;;;;;4992974;28;20045;-72
2023/09/13 04:38:11;;;;;;;7.03;3.22;;;;;;;;;;4992619;28;20420;-72
2023/09/13 04:40:42;;;;;;;11.13;2.95;;;;;;;;;;4991381;28;20145;-72
2023/09/13 04:43:07;;;;;;;8.15;3.83;;;;;;;;;;4993051;28;20049;-72
2023/09/13 04:45:34;;;;;;;8.38;3.25;;;;;;;;;;4992669;28;20050;-72
2023/09/13 04:48:00;;;;;;;5.97;3.30;;;;;;;;;;4990828;28;20472;-72
2023/09/13 04:50:27;;;;;;;7.97;3.20;;;;;;;;;;4984396;28;20038;-72
2023/09/13 04:52:53;;;;;;;7.80;3.08;;;;;;;;;;4992847;28;20046;-72
2023/09/13 04:55:19;;;;;;;5.75;3.10;;;;;;;;;;4992705;28;20042;-72
2023/09/13 04:57:45;;;;;;;11.20;3.85;;;;;;;;;;4992409;28;20046;-72
2023/09/13 05:00:14;;;;;;;7.75;3.30;;;;;;;;;;4992433;28;20034;-72
2023/09/13 05:02:40;;;;;;;8.60;3.28;;;;;;;;;;4992990;28;20108;-72
2023/09/13 05:05:06;;;;;;;7.72;3.10;;;;;;;;;;4990849;28;20047;-71
2023/09/13 05:07:32;;;;;;;9.13;3.20;;;;;;;;;;4992520;28;20374;-71
2023/09/13 05:09:58;;;;;;;8.30;2.95;;;;;;;;;;4992605;28;20125;-71
2023/09/13 05:12:24;;;;;;;9.38;3.60;;;;;;;;;;4992791;28;20038;-71
2023/09/13 05:14:50;;;;;;;11.82;3.50;;;;;;;;;;4991326;28;20119;-72
2023/09/13 05:17:16;;;;;;;6.60;3.10;;;;;;;;;;4992079;28;20097;-72
2023/09/13 05:19:42;;;;;;;9.60;3.40;;;;;;;;;;4992188;28;20496;-72
2023/09/13 05:22:08;;;;;;;9.63;3.35;;;;;;;;;;4992421;28;20038;-72
2023/09/13 05:24:34;;;;;;;6.65;3.28;;;;;;;;;;4992443;28;20386;-71
2023/09/13 05:27:00;;;;;;;8.43;3.60;;;;;;;;;;4992375;28;20045;-71
2023/09/13 05:29:26;;;;;;;7.75;3.10;;;;;;;;;;4992694;28;20046;-71
2023/09/13 05:31:52;;;;;;;10.35;3.80;;;;;;;;;;4992736;28;20042;-71
2023/09/13 05:34:18;;;;;;;6.35;2.85;;;;;;;;;;4992102;28;20476;-71
2023/09/13 05:36:44;;;;;;;10.48;2.83;;;;;;;;;;4991047;28;20053;-71
2023/09/13 05:39:10;;;;;;;9.35;3.00;;;;;;;;;;4983505;28;20044;-71
2023/09/13 05:41:37;;;;;;;10.02;3.25;;;;;;;;;;4992891;28;20089;-72
2023/09/13 05:44:03;;;;;;;11.18;3.00;;;;;;;;;;4991996;28;20089;-72
2023/09/13 05:46:29;;;;;;;5.00;2.50;;;;;;;;;;4992353;28;20046;-72
2023/09/13 05:48:55;;;;;;;6.60;2.45;;;;;;;;;;4991720;28;20042;-72
2023/09/13 05:51:21;;;;;;;8.20;2.63;;;;;;;;;;4991028;28;20038;-71
2023/09/13 05:53:47;;;;;;;6.15;1.92;;;;;;;;;;4992115;28;20412;-71
2023/09/13 05:56:13;;;;;;;7.07;2.25;;;;;;;;;;4990018;28;20046;-71
2023/09/13 05:58:43;;;;;;;6.68;2.10;;;;;;;;;;4992373;28;20042;-72
2023/09/13 06:01:10;;;;;;;4.50;1.67;;;;;;;;;;4993755;28;20042;-71
2023/09/13 06:03:36;;;;;;;5.00;1.60;;;;;;;;;;4989558;28;20728;-72
2023/09/13 06:06:02;;;;;;;6.05;1.50;;;;;;;;;;4995341;28;20039;-72
2023/09/13 06:08:29;;;;;;;4.57;1.65;;;;;;;;;;4996007;28;20034;-72
2023/09/13 06:10:55;;;;;;;6.70;1.58;;;;;;;;;;4995747;28;20154;-72
2023/09/13 06:13:21;;;;;;;7.47;1.83;;;;;;;;;;4995106;28;20481;-72
2023/09/13 06:15:47;;;;;;;8.65;2.33;;;;;;;;;;4995288;28;20113;-71
2023/09/13 06:18:13;;;;;;;7.60;2.03;;;;;;;;;;4995566;28;20066;-72
2023/09/13 06:20:39;;;;;;;6.40;1.65;;;;;;;;;;4995257;28;20535;-73
2023/09/13 06:23:04;;;;;;;5.82;1.73;;;;;;;;;;4995793;28;20043;-73
2023/09/13 06:25:30;;;;;;;5.65;1.60;;;;;;;;;;4995067;28;20038;-73
2023/09/13 06:27:56;;;;;;;3.90;1.20;;;;;;;;;;4995577;28;20048;-73
2023/09/13 06:30:22;;;;;;;5.80;1.65;;;;;;;;;;4994276;28;20042;-73
2023/09/13 06:32:48;;;;;;;8.27;1.95;;;;;;;;;;4995698;28;20497;-74
2023/09/13 06:35:14;;;;;;;7.45;2.35;;;;;;;;;;4993759;28;20049;-73
2023/09/13 06:37:41;;;;;;;4.18;1.88;;;;;;;;;;4994993;28;20042;-73
2023/09/13 06:40:07;;;;;;;5.18;1.70;;;;;;;;;;4994983;28;20042;-73
2023/09/13 06:42:33;;;;;;;5.15;1.58;;;;;;;;;;4995288;28;20057;-73
2023/09/13 06:45:00;;;;;;;5.53;1.70;;;;;;;;;;4993330;28;20077;-73
2023/09/13 06:47:28;;;;;;;4.93;1.67;;;;;;;;;;4993410;28;20043;-73
2023/09/13 06:49:54;;;;;;;4.70;1.58;;;;;;;;;;4994814;28;20046;-73
2023/09/13 06:52:20;;;;;;;4.50;1.60;;;;;;;;;;4994045;28;20408;-73
2023/09/13 06:54:46;;;;;;;4.95;1.75;;;;;;;;;;4995151;28;20050;-73
2023/09/13 06:57:13;;;;;;;3.35;1.30;;;;;;;;;;4994272;28;20038;-73
2023/09/13 06:59:39;;;;;;;7.55;1.80;;;;;;;;;;4994866;28;20050;-73
2023/09/13 07:02:06;;;;;;;5.25;1.65;;;;;;;;;;4993573;28;20499;-73
2023/09/13 07:04:32;;;;;;;6.82;1.75;;;;;;;;;;4987507;28;20143;-73
2023/09/13 07:06:58;;;;;;;2.05;1.25;;;;;;;;;;4992972;28;20185;-73
2023/09/13 07:09:24;;;;;;;3.97;1.08;;;;;;;;;;4994879;28;20038;-73
2023/09/13 07:11:50;;;;;;;3.78;1.25;;;;;;;;;;4994148;28;20041;-73
2023/09/13 07:14:16;;;;;;;3.25;1.27;;;;;;;;;;4994042;28;20050;-73
2023/09/13 07:16:42;;;;;;;6.72;1.73;;;;;;;;;;4994265;28;20038;-73
2023/09/13 07:19:08;;;;;;;6.13;1.70;;;;;;;;;;4986233;28;20046;-74
2023/09/13 07:21:33;;;;;;;2.83;1.50;;;;;;;;;;4992888;28;20052;-73
2023/09/13 07:23:59;;;;;;;3.10;1.27;;;;;;;;;;4994518;28;20162;-73
2023/09/13 07:26:25;;;;;;;7.60;1.67;;;;;;;;;;4994174;28;20040;-73
2023/09/13 07:28:51;;;;;;;7.75;2.17;;;;;;;;;;4994174;28;20034;-73
2023/09/13 07:31:17;;;;;;;3.65;1.65;;;;;;;;;;4994150;28;20037;-73
2023/09/13 07:33:43;;;;;;;6.18;1.70;;;;;;;;;;4994504;28;20049;-73
2023/09/13 07:36:09;;;;;;;4.25;1.90;;;;;;;;;;4992255;28;20481;-73
2023/09/13 07:38:37;;;;;;;5.43;1.90;;;;;;;;;;4993063;28;20130;-73
2023/09/13 07:41:03;;;;;;;6.97;1.83;;;;;;;;;;4992514;28;20511;-73
2023/09/13 07:43:29;;;;;;;6.47;2.30;;;;;;;;;;4992275;28;20408;-73
2023/09/13 07:45:55;;;;;;;5.07;1.83;;;;;;;;;;4993498;28;20087;-74
2023/09/13 07:48:23;;;;;;;7.65;2.40;;;;;;;;;;4993924;28;20052;-74
2023/09/13 07:50:48;;;;;;;6.05;1.90;;;;;;;;;;4992269;28;20408;-74
2023/09/13 07:53:14;;;;;;;10.80;2.05;;;;;;;;;;4993567;28;20027;-74
2023/09/13 07:55:41;;;;;;;5.07;1.98;;;;;;;;;;4993272;28;20490;-74
2023/09/13 07:58:07;;;;;;;4.75;2.38;;;;;;;;;;4993804;28;20042;-73
2023/09/13 08:00:33;;;;;;;6.22;2.63;;;;;;;;;;4992507;28;20035;-73
2023/09/13 08:03:00;;;;;;;8.23;2.40;;;;;;;;;;4985928;28;20038;-73
2023/09/13 08:05:26;;;;;;;6.30;2.10;;;;;;;;;;4991777;28;20042;-73
2023/09/13 08:07:53;;;;;;;9.30;2.42;;;;;;;;;;4986940;28;20038;-73
2023/09/13 08:10:18;;;;;;;7.07;2.30;;;;;;;;;;4984301;28;20045;-74
2023/09/13 08:12:45;;;;;;;9.82;2.45;;;;;;;;;;4993205;28;20030;-74
2023/09/13 08:15:11;;;;;;;7.00;2.65;;;;;;;;;;4985460;28;20062;-74
2023/09/13 08:17:37;;;;;;;10.20;2.42;;;;;;;;;;4988673;28;20119;-74
2023/09/13 08:20:05;;;;;;;7.80;2.55;;;;;;;;;;4988708;28;20484;-74
2023/09/13 08:22:31;;;;;;;10.32;2.88;;;;;;;;;;4993243;28;20085;-74
2023/09/13 08:24:57;;;;;;;14.68;2.75;;;;;;;;;;4985254;28;20049;-74
2023/09/13 08:27:23;;;;;;;12.05;2.97;;;;;;;;;;4992629;28;20038;-74
2023/09/13 08:29:49;;;;;;;10.10;2.75;;;;;;;;;;4993585;28;20451;-73
2023/09/13 08:32:15;;;;;;;9.10;2.95;;;;;;;;;;4991431;28;20045;-74
2023/09/13 08:34:41;;;;;;;8.73;2.50;;;;;;;;;;4993144;28;20204;-74
2023/09/13 08:37:06;;;;;;;12.57;3.10;;;;;;;;;;4992618;28;20082;-74
2023/09/13 08:39:33;;;;;;;11.63;3.08;;;;;;;;;;4993520;28;20078;-73
2023/09/13 08:41:59;;;;;;;6.10;2.47;;;;;;;;;;4993105;28;20050;-73
2023/09/13 08:44:26;;;;;;;7.50;2.75;;;;;;;;;;4984691;28;20038;-73
2023/09/13 08:46:56;;;;;;;5.97;3.20;;;;;;;;;;4992680;28;20396;-74
2023/09/13 08:49:23;;;;;;;9.70;3.00;;;;;;;;;;4991832;28;20053;-74
2023/09/13 08:51:51;;;;;;;9.75;3.00;;;;;;;;;;4986647;28;20041;-74
2023/09/13 08:54:17;;;;;;;7.15;3.28;;;;;;;;;;4991191;28;20046;-74
2023/09/13 08:56:43;;;;;;;12.85;2.90;;;;;;;;;;4986993;28;20481;-73
2023/09/13 08:59:13;;;;;;;7.72;2.38;;;;;;;;;;4988608;28;20429;-73
2023/09/13 09:01:39;;;;;;;8.40;2.72;;;;;;;;;;4992560;28;20038;-73
2023/09/13 09:04:05;;;;;;;8.43;2.53;;;;;;;;;;4992667;28;20050;-73
2023/09/13 09:06:32;;;;;;;8.30;2.85;;;;;;;;;;4992447;28;20113;-73
2023/09/13 09:08:58;;;;;;;5.95;2.60;;;;;;;;;;4992299;28;20069;-73
2023/09/13 09:11:27;;;;;;;5.97;2.67;;;;;;;;;;4992474;28;20392;-73
2023/09/13 09:13:57;;;;;;;11.80;2.85;;;;;;;;;;4993089;28;20440;-73
2023/09/13 09:16:23;;;;;;;11.70;3.30;;;;;;;;;;4991978;28;20050;-73
2023/09/13 09:18:49;;;;;;;7.25;2.75;;;;;;;;;;4991309;28;20045;-73
2023/09/13 09:21:16;;;;;;;9.05;2.65;;;;;;;;;;4992516;28;20129;-73
2023/09/13 09:23:42;;;;;;;8.57;2.83;;;;;;;;;;4992172;28;20182;-73
2023/09/13 09:26:08;;;;;;;7.20;2.58;;;;;;;;;;4992343;28;20045;-73
2023/09/13 09:28:34;;;;;;;6.38;2.80;;;;;;;;;;4992737;28;20038;-73
2023/09/13 09:31:05;;;;;;;8.20;3.00;;;;;;;;;;4990809;28;20121;-73
2023/09/13 09:33:31;;;;;;;8.35;2.45;;;;;;;;;;4983820;28;20038;-73
2023/09/13 09:36:01;;;;;;;6.97;2.38;;;;;;;;;;4995347;28;20035;-73
2023/09/13 09:38:28;;;;;;;7.05;2.47;;;;;;;;;;4996353;28;20120;-73
2023/09/13 09:41:00;;;;;;;7.40;2.30;;;;;;;;;;4995135;28;20050;-73
2023/09/13 09:43:27;;;;;;;7.70;2.50;;;;;;;;;;4986812;28;20046;-73
2023/09/13 09:45:53;;;;;;;6.40;2.50;;;;;;;;;;4996055;28;20035;-73
2023/09/13 09:48:19;;;;;;;7.63;2.75;;;;;;;;;;4994446;28;20092;-73
2023/09/13 09:50:49;;;;;;;12.65;2.72;;;;;;;;;;4988133;28;20038;-73
2023/09/13 09:53:15;;;;;;;8.15;2.10;;;;;;;;;;4995878;28;20064;-73
2023/09/13 09:55:45;;;;;;;6.07;1.80;;;;;;;;;;4994476;28;20078;-73
2023/09/13 09:58:11;;;;;;;6.40;2.60;;;;;;;;;;4987685;28;20050;-73
2023/09/13 10:00:45;;;;;;;6.90;2.35;;;;;;;;;;4996186;28;20289;-73
2023/09/13 10:03:17;;;;;;;5.82;1.98;;;;;;;;;;4995480;28;20042;-73
2023/09/13 10:05:55;;;;;;;7.72;2.08;;;;;;;;;;4988410;28;20602;-73
2023/09/13 10:08:37;;;;;;;5.88;2.28;;;;;;;;;;4995573;28;20048;-73
2023/09/13 10:11:03;;;;;;;6.47;1.95;;;;;;;;;;4995890;28;20452;-73
2023/09/13 10:13:35;;;;;;;5.70;1.92;;;;;;;;;;4995604;28;20054;-73
2023/09/13 10:16:02;;;;;;;9.20;2.30;;;;;;;;;;4995065;28;20049;-73
2023/09/13 10:18:30;;;;;;;5.10;2.13;;;;;;;;;;4995431;28;20042;-73
2023/09/13 10:20:57;;;;;;;7.18;2.42;;;;;;;;;;4995781;28;20038;-72
2023/09/13 10:23:28;;;;;;;8.15;2.08;;;;;;;;;;4994912;28;20039;-72
2023/09/13 10:25:55;;;;;;;5.82;1.80;;;;;;;;;;4995491;28;20037;-72
2023/09/13 10:28:24;;;;;;;6.13;2.00;;;;;;;;;;4995338;28;20077;-73
2023/09/13 10:30:50;;;;;;;9.23;2.25;;;;;;;;;;4995238;28;20035;-72
2023/09/13 10:33:17;;;;;;;5.72;2.05;;;;;;;;;;4995190;28;20041;-72
2023/09/13 10:35:45;;;;;;;6.05;1.83;;;;;;;;;;4995235;28;20065;-72
2023/09/13 10:38:24;;;;;;;9.20;2.17;;;;;;;;;;4995388;28;20121;-73
2023/09/13 10:41:10;;;;;;;7.10;1.90;;;;;;;;;;4995026;28;20097;-73
2023/09/13 10:43:37;;;;;;;6.80;1.90;;;;;;;;;;4994719;28;20054;-73
2023/09/13 10:46:04;;;;;;;6.90;1.92;;;;;;;;;;4993971;28;20039;-73
2023/09/13 10:48:30;;;;;;;5.97;1.83;;;;;;;;;;4995233;28;20038;-72
2023/09/13 10:50:57;;;;;;;3.72;1.63;;;;;;;;;;4994810;28;20374;-72
2023/09/13 10:53:23;;;;;;;7.63;2.10;;;;;;;;;;4994751;28;20170;-72
2023/09/13 10:55:50;;;;;;;5.65;2.00;;;;;;;;;;4994955;28;20499;-73
2023/09/13 10:58:20;;;;;;;5.90;1.75;;;;;;;;;;4986727;28;20034;-72
2023/09/13 11:00:47;;;;;;;6.13;2.08;;;;;;;;;;4995245;28;20042;-73
2023/09/13 11:03:13;;;;;;;9.30;2.38;;;;;;;;;;4995018;28;20480;-73
2023/09/13 11:05:40;;;;;;;7.88;2.25;;;;;;;;;;4994045;28;20038;-72
2023/09/13 11:08:11;;;;;;;4.78;1.95;;;;;;;;;;4993142;28;20039;-72
2023/09/13 11:10:37;;;;;;;8.35;2.88;;;;;;;;;;4986198;28;20046;-72
2023/09/13 11:13:13;;;;;;;6.97;2.20;;;;;;;;;;4994435;28;20035;-72
2023/09/13 11:15:49;;;;;;;4.85;2.20;;;;;;;;;;4994474;28;20121;-72
2023/09/13 11:18:15;;;;;;;8.73;2.45;;;;;;;;;;4992933;28;20057;-72
2023/09/13 11:20:42;;;;;;;11.00;2.42;;;;;;;;;;4994320;28;20128;-72
2023/09/13 11:23:18;;;;;;;7.38;2.10;;;;;;;;;;4994029;28;20484;-72
2023/09/13 11:25:48;;;;;;;6.65;2.20;;;;;;;;;;4994230;28;20046;-73
2023/09/13 11:28:32;;;;;;;7.00;2.33;;;;;;;;;;4994380;28;20111;-73
2023/09/13 11:30:59;;;;;;;10.20;2.40;;;;;;;;;;4992412;28;20120;-73
2023/09/13 11:33:28;;;;;;;6.35;2.35;;;;;;;;;;4986059;28;20125;-73
2023/09/13 11:35:56;;;;;;;8.95;2.28;;;;;;;;;;4994070;28;20436;-73
2023/09/13 11:38:26;;;;;;;7.00;2.88;;;;;;;;;;4993348;28;20449;-73
2023/09/13 11:40:56;;;;;;;4.72;1.80;;;;;;;;;;4994104;28;20034;-73
2023/09/13 11:43:23;;;;;;;7.80;2.20;;;;;;;;;;4994319;28;20046;-73
2023/09/13 11:45:50;;;;;;;4.63;1.73;;;;;;;;;;4993451;28;20488;-73
2023/09/13 11:48:39;;;;;;;8.48;1.90;;;;;;;;;;4993699;28;20062;-73
2023/09/13 11:51:15;;;;;;;3.58;2.17;;;;;;;;;;4994198;28;20088;-73
2023/09/13 11:53:41;;;;;;;10.02;2.47;;;;;;;;;;4993844;28;20049;-72
2023/09/13 11:56:09;;;;;;;5.30;2.03;;;;;;;;;;4993821;28;20034;-72
2023/09/13 11:58:36;;;;;;;4.45;2.10;;;;;;;;;;4993378;28;20059;-72
2023/09/13 12:01:04;;;;;;;6.40;2.20;;;;;;;;;;4992504;28;20428;-72
2023/09/13 12:03:31;;;;;;;5.80;2.05;;;;;;;;;;4992958;28;20609;-73
2023/09/13 12:05:57;;;;;;;6.97;2.22;;;;;;;;;;4993311;28;20455;-73
2023/09/13 12:08:31;;;;;;;6.93;2.40;;;;;;;;;;4993836;28;20065;-73
2023/09/13 12:10:58;;;;;;;8.55;2.50;;;;;;;;;;4993429;28;20045;-73
2023/09/13 12:13:43;;;;;;;5.60;1.77;;;;;;;;;;4993401;28;20049;-73
2023/09/13 12:16:09;;;;;;;8.07;2.25;;;;;;;;;;4985642;28;20035;-73
2023/09/13 12:18:35;;;;;;;5.50;1.77;;;;;;;;;;4993155;28;20038;-73
2023/09/13 12:21:01;;;;;;;6.25;2.15;;;;;;;;;;4993206;28;20038;-73
2023/09/13 12:23:27;;;;;;;6.47;1.98;;;;;;;;;;4993138;28;20042;-73
2023/09/13 12:25:56;;;;;;;4.28;1.50;;;;;;;;;;4993383;28;20038;-73
2023/09/13 12:28:32;;;;;;;6.55;1.70;;;;;;;;;;4992779;28;20039;-73
2023/09/13 12:30:58;;;;;;;7.63;2.05;;;;;;;;;;4993270;28;20038;-73
2023/09/13 12:33:25;;;;;;;5.30;2.05;;;;;;;;;;4985633;28;20449;-73
2023/09/13 12:35:51;;;;;;;4.60;1.95;;;;;;;;;;4992855;28;20050;-73
2023/09/13 12:38:19;;;;;;;3.80;1.50;;;;;;;;;;4993212;28;20042;-73
2023/09/13 12:40:54;;;;;;;3.45;1.52;;;;;;;;;;4992967;28;20176;-73
2023/09/13 12:43:27;;;;;;;3.42;1.40;;;;;;;;;;4992942;28;20504;-73
2023/09/13 12:45:54;;;;;;;5.40;1.67;;;;;;;;;;4984533;28;20096;-73
2023/09/13 12:48:20;;;;;;;4.50;1.65;;;;;;;;;;4993086;28;20042;-73
2023/09/13 12:50:47;;;;;;;5.85;1.75;;;;;;;;;;4987122;28;20042;-73
2023/09/13 12:53:14;;;;;;;4.82;1.63;;;;;;;;;;4989369;28;20182;-73
2023/09/13 12:55:40;;;;;;;5.15;1.40;;;;;;;;;;4984650;28;20042;-73
2023/09/13 12:58:06;;;;;;;7.30;2.00;;;;;;;;;;4992807;28;20038;-73
2023/09/13 13:00:47;;;;;;;4.78;2.00;;;;;;;;;;4992498;28;20443;-73
2023/09/13 13:03:14;;;;;;;5.13;1.63;;;;;;;;;;4993117;28;20062;-73
2023/09/13 13:05:43;;;;;;;9.15;1.92;;;;;;;;;;4992362;28;20038;-73
2023/09/13 13:08:10;;;;;;;4.57;1.42;;;;;;;;;;4992909;28;20030;-73
2023/09/13 13:10:58;;;;;;;4.72;1.80;;;;;;;;;;4991810;28;20034;-73
2023/09/13 13:13:37;;;;;;;6.07;2.30;;;;;;;;;;4992702;28;20046;-73
2023/09/13 13:16:13;;;;;;;3.28;1.75;;;;;;;;;;4990682;28;20042;-73
2023/09/13 13:18:49;;;;;;;7.47;1.60;;;;;;;;;;4992443;28;20034;-73
2023/09/13 13:21:19;;;;;;;3.85;1.60;;;;;;;;;;4992730;28;20129;-73
2023/09/13 13:23:47;;;;;;;5.63;1.65;;;;;;;;;;4992599;28;20507;-73
2023/09/13 13:26:14;;;;;;;5.47;1.83;;;;;;;;;;4992202;28;20083;-73
2023/09/13 13:28:40;;;;;;;6.03;2.20;;;;;;;;;;4992689;28;20061;-73
2023/09/13 13:31:06;;;;;;;6.25;2.00;;;;;;;;;;4992399;28;20381;-73
2023/09/13 13:33:32;;;;;;;7.60;1.55;;;;;;;;;;4992420;28;20118;-73
2023/09/13 13:35:58;;;;;;;5.97;2.00;;;;;;;;;;4990740;28;20089;-73
2023/09/13 13:38:24;;;;;;;4.97;1.55;;;;;;;;;;4984608;28;20038;-73
2023/09/13 13:41:02;;;;;;;4.22;1.50;;;;;;;;;;4990844;28;20030;-73
2023/09/13 13:43:28;;;;;;;4.57;1.30;;;;;;;;;;4992047;28;20484;-73
2023/09/13 13:45:54;;;;;;;4.20;1.48;;;;;;;;;;4991641;28;20045;-73
2023/09/13 13:48:20;;;;;;;6.65;1.40;;;;;;;;;;4991069;28;20084;-73
2023/09/13 13:50:46;;;;;;;7.28;1.60;;;;;;;;;;4992465;28;20504;-73
2023/09/13 13:53:12;;;;;;;5.55;1.65;;;;;;;;;;4992157;28;20034;-73
2023/09/13 13:55:39;;;;;;;7.55;1.90;;;;;;;;;;4991882;28;20123;-73
2023/09/13 13:58:05;;;;;;;6.55;1.75;;;;;;;;;;4992402;28;20046;-73
2023/09/13 14:00:31;;;;;;;7.15;1.75;;;;;;;;;;4991799;28;20049;-73
2023/09/13 14:02:57;;;;;;;5.18;1.20;;;;;;;;;;4992609;28;20037;-73
2023/09/13 14:05:23;;;;;;;9.43;1.73;;;;;;;;;;4991647;28;20040;-73
2023/09/13 14:07:49;;;;;;;8.32;1.50;;;;;;;;;;4992331;28;20374;-73
2023/09/13 14:10:15;;;;;;;8.45;1.65;;;;;;;;;;4991883;28;20034;-73
2023/09/13 14:12:41;;;;;;;6.35;1.45;;;;;;;;;;4990928;28;20042;-73
2023/09/13 14:15:08;;;;;;;7.15;1.80;;;;;;;;;;4991425;28;20108;-73
2023/09/13 14:17:34;;;;;;;11.25;2.33;;;;;;;;;;4991563;28;20508;-73
2023/09/13 14:20:00;;;;;;;23.55;7.30;;;;;;;;;;4992211;28;20039;-73
2023/09/13 14:22:26;;;;;;;7.95;2.10;;;;;;;;;;4994300;28;20056;-73
2023/09/13 14:24:52;;;;;;;10.18;2.78;;;;;;;;;;4995450;28;20042;-73
2023/09/13 14:27:18;;;;;;;5.28;1.73;;;;;;;;;;4995404;28;20069;-72
2023/09/13 14:29:44;;;;;;;15.20;2.72;;;;;;;;;;4995308;28;20477;-73
2023/09/13 14:32:10;;;;;;;9.55;2.08;;;;;;;;;;4995454;28;20038;-73
2023/09/13 14:34:39;;;;;;;7.80;2.28;;;;;;;;;;4994936;28;20046;-73
2023/09/13 14:37:06;;;;;;;11.88;2.50;;;;;;;;;;4995003;28;20053;-73
2023/09/13 14:39:32;;;;;;;5.28;1.67;;;;;;;;;;4995496;28;20057;-73